createdAt,value
2024-01-17T00:00:21.889Z,99.90
2024-01-17T00:02:50.609Z,99.90
2024-01-17T00:05:20.402Z,99.90
2024-01-17T00:07:48.641Z,99.90
2024-01-17T00:10:17.661Z,99.90
2024-01-17T00:12:45.926Z,99.90
2024-01-17T00:15:14.421Z,99.90
2024-01-17T00:17:42.795Z,99.90
2024-01-17T00:20:11.552Z,99.90
2024-01-17T00:22:41.126Z,99.90
2024-01-17T00:25:10.915Z,99.90
2024-01-17T00:27:39.472Z,99.90
2024-01-17T00:30:09.073Z,99.90
2024-01-17T00:32:37.554Z,99.90
2024-01-17T00:35:06.436Z,99.90
2024-01-17T00:37:34.679Z,99.90
2024-01-17T00:40:04.381Z,99.90
2024-01-17T00:42:32.533Z,99.90
2024-01-17T00:45:01.133Z,99.90
2024-01-17T00:47:29.550Z,99.90
2024-01-17T00:49:57.851Z,99.90
2024-01-17T00:52:26.635Z,99.90
2024-01-17T00:54:54.829Z,99.90
2024-01-17T00:57:24.367Z,99.90
2024-01-17T00:59:52.664Z,99.90
2024-01-17T01:25:27.298Z,99.90
2024-01-17T01:27:55.438Z,99.90
2024-01-17T01:30:23.719Z,99.90
2024-01-17T01:32:52.024Z,99.90
2024-01-17T01:35:20.183Z,99.90
2024-01-17T01:37:48.384Z,99.90
2024-01-17T01:40:16.660Z,99.90
2024-01-17T01:42:46.433Z,99.90
2024-01-17T01:45:14.704Z,99.90
2024-01-17T01:47:44.002Z,99.90
2024-01-17T01:50:13.608Z,99.90
2024-01-17T01:52:45.042Z,99.90
2024-01-17T01:55:13.987Z,99.90
2024-01-17T01:57:47.949Z,99.90
2024-01-17T02:00:20.065Z,99.90
2024-01-17T02:02:48.462Z,99.90
2024-01-17T02:05:17.335Z,99.90
2024-01-17T02:07:47.076Z,99.90
2024-01-17T02:10:15.253Z,99.90
2024-01-17T02:12:45.459Z,99.90
2024-01-17T02:15:13.678Z,99.90
2024-01-17T02:17:44.808Z,99.90
2024-01-17T02:20:13.579Z,99.90
2024-01-17T02:22:41.669Z,99.90
2024-01-17T02:25:11.262Z,99.90
2024-01-17T02:27:39.824Z,99.90
2024-01-17T02:30:09.231Z,99.90
2024-01-17T02:32:39.547Z,99.90
2024-01-17T02:35:08.231Z,99.90
2024-01-17T02:37:36.519Z,99.90
2024-01-17T02:40:05.016Z,99.90
2024-01-17T02:42:34.611Z,99.90
2024-01-17T02:45:02.805Z,99.90
2024-01-17T02:47:32.771Z,99.90
2024-01-17T02:50:01.186Z,99.90
2024-01-17T02:52:29.342Z,99.90
2024-01-17T02:54:57.690Z,99.90
2024-01-17T02:57:25.887Z,99.90
2024-01-17T02:59:55.545Z,99.90
2024-01-17T03:02:24.300Z,99.90
2024-01-17T03:04:52.570Z,99.90
2024-01-17T03:07:20.898Z,99.90
2024-01-17T03:09:49.114Z,99.90
2024-01-17T03:12:17.311Z,99.90
2024-01-17T03:14:45.447Z,99.90
2024-01-17T03:17:14.998Z,99.90
2024-01-17T03:19:45.655Z,99.90
2024-01-17T03:22:14.073Z,99.90
2024-01-17T03:24:42.421Z,99.90
2024-01-17T03:27:10.570Z,99.90
2024-01-17T03:29:38.772Z,99.90
2024-01-17T03:32:07.278Z,99.90
2024-01-17T03:34:37.031Z,99.90
2024-01-17T03:37:07.875Z,99.90
2024-01-17T03:39:37.118Z,99.90
2024-01-17T03:42:05.789Z,99.90
2024-01-17T03:44:34.060Z,99.90
2024-01-17T03:47:02.297Z,99.90
2024-01-17T03:49:30.446Z,99.90
2024-01-17T03:52:00.724Z,99.90
2024-01-17T03:54:28.959Z,99.90
2024-01-17T03:56:58.017Z,99.90
2024-01-17T03:59:26.334Z,99.90
2024-01-17T04:01:54.580Z,99.90
2024-01-17T04:04:22.821Z,99.90
2024-01-17T04:06:50.969Z,99.90
2024-01-17T04:09:20.612Z,99.90
2024-01-17T04:11:49.094Z,99.90
2024-01-17T04:14:17.378Z,99.90
2024-01-17T04:16:45.498Z,99.90
2024-01-17T04:19:13.761Z,99.90
2024-01-17T04:21:41.938Z,99.90
2024-01-17T04:24:10.212Z,99.90
2024-01-17T04:26:39.785Z,99.90
2024-01-17T04:29:07.933Z,99.90
2024-01-17T04:31:36.689Z,99.90
2024-01-17T04:34:05.173Z,99.90
2024-01-17T04:36:33.922Z,99.90
2024-01-17T04:39:02.598Z,99.90
2024-01-17T04:41:31.842Z,99.90
2024-01-17T04:44:01.867Z,99.90
2024-01-17T04:46:31.030Z,99.90
2024-01-17T04:49:01.089Z,99.90
2024-01-17T04:51:29.811Z,99.90
2024-01-17T04:53:59.580Z,99.90
2024-01-17T04:56:30.424Z,99.90
2024-01-17T04:58:58.736Z,99.90
2024-01-17T05:01:28.297Z,99.90
2024-01-17T05:03:56.534Z,99.90
2024-01-17T05:06:25.032Z,99.90
2024-01-17T05:08:54.009Z,99.90
2024-01-17T05:11:23.577Z,99.90
2024-01-17T05:13:51.826Z,99.90
2024-01-17T05:16:20.051Z,99.90
2024-01-17T05:18:49.777Z,99.90
2024-01-17T05:21:18.110Z,99.90
2024-01-17T05:23:46.321Z,99.90
2024-01-17T05:26:15.022Z,99.90
2024-01-17T05:28:43.315Z,99.90
2024-01-17T05:31:12.204Z,99.90
2024-01-17T05:33:40.591Z,99.90
2024-01-17T05:36:10.339Z,99.90
2024-01-17T05:38:38.686Z,99.90
2024-01-17T05:41:06.879Z,99.90
2024-01-17T05:43:35.025Z,99.90
2024-01-17T05:46:03.406Z,99.90
2024-01-17T05:48:31.804Z,99.90
2024-01-17T05:51:00.115Z,99.90
2024-01-17T05:53:29.686Z,99.90
2024-01-17T05:55:58.133Z,99.90
2024-01-17T05:58:26.761Z,99.90
2024-01-17T06:00:56.385Z,99.90
2024-01-17T06:03:24.716Z,99.90
2024-01-17T06:05:54.119Z,99.90
2024-01-17T06:08:22.358Z,99.90
2024-01-17T06:10:51.929Z,99.90
2024-01-17T06:13:20.152Z,99.90
2024-01-17T06:15:48.441Z,99.90
2024-01-17T06:18:17.365Z,99.90
2024-01-17T06:20:45.689Z,99.90
2024-01-17T06:23:13.820Z,99.90
2024-01-17T06:25:42.938Z,99.90
2024-01-17T06:28:12.433Z,99.90
2024-01-17T06:30:40.667Z,99.90
2024-01-17T06:33:09.038Z,99.90
2024-01-17T06:35:37.358Z,99.90
2024-01-17T06:38:05.751Z,99.90
2024-01-17T06:40:34.078Z,99.90
2024-01-17T06:43:02.501Z,99.90
2024-01-17T06:45:33.189Z,99.90
2024-01-17T06:48:03.570Z,99.90
2024-01-17T06:50:31.791Z,99.90
2024-01-17T06:52:59.943Z,97.90
2024-01-17T06:55:28.109Z,93.30
2024-01-17T06:57:56.266Z,91.80
2024-01-17T07:00:26.167Z,91.10
2024-01-17T07:02:56.860Z,91.50
2024-01-17T07:05:25.034Z,90.80
2024-01-17T07:07:53.207Z,91.50
2024-01-17T07:10:21.429Z,95.40
2024-01-17T07:12:49.576Z,97.40
2024-01-17T07:15:17.844Z,98.10
2024-01-17T07:17:46.258Z,96.50
2024-01-17T07:20:16.851Z,94.00
2024-01-17T07:22:46.033Z,94.50
2024-01-17T07:25:15.142Z,96.10
2024-01-17T07:27:44.611Z,98.50
2024-01-17T07:30:13.618Z,99.80
2024-01-17T07:32:42.531Z,99.90
2024-01-17T07:35:11.623Z,99.90
2024-01-17T07:37:41.148Z,99.90
2024-01-17T07:40:11.686Z,99.90
2024-01-17T07:42:39.944Z,99.90
2024-01-17T07:45:08.699Z,99.90
2024-01-17T07:47:37.021Z,99.90
2024-01-17T07:50:05.772Z,99.90
2024-01-17T07:52:34.652Z,99.90
2024-01-17T07:55:07.763Z,99.90
2024-01-17T07:57:36.841Z,99.90
2024-01-17T08:00:06.212Z,99.90
2024-01-17T08:02:34.600Z,99.90
2024-01-17T08:05:02.885Z,99.90
2024-01-17T08:07:31.055Z,99.90
2024-01-17T08:10:01.543Z,99.90
2024-01-17T08:12:32.292Z,99.90
2024-01-17T08:15:00.874Z,99.90
2024-01-17T08:17:31.171Z,99.90
2024-01-17T08:20:00.804Z,99.90
2024-01-17T08:22:29.136Z,99.90
2024-01-17T08:24:57.321Z,99.90
2024-01-17T08:27:25.537Z,99.90
2024-01-17T08:29:55.136Z,99.90
2024-01-17T08:32:23.349Z,99.90
2024-01-17T08:34:51.985Z,99.90
2024-01-17T08:37:20.205Z,99.90
2024-01-17T08:39:48.378Z,99.90
2024-01-17T08:42:16.747Z,99.90
2024-01-17T08:44:45.373Z,99.90
2024-01-17T08:47:14.950Z,99.90
2024-01-17T08:49:43.427Z,99.90
2024-01-17T08:52:11.733Z,99.90
2024-01-17T08:54:39.921Z,99.90
2024-01-17T08:57:08.180Z,99.90
2024-01-17T08:59:37.136Z,99.90
2024-01-17T09:02:05.796Z,99.90
2024-01-17T09:04:35.399Z,99.90
2024-01-17T09:07:03.819Z,99.90
2024-01-17T09:09:32.303Z,99.90
2024-01-17T09:12:00.771Z,99.90
2024-01-17T09:14:29.451Z,99.90
2024-01-17T09:16:57.745Z,99.90
2024-01-17T09:19:26.001Z,99.90
2024-01-17T09:21:55.988Z,99.90
2024-01-17T09:24:24.181Z,99.90
2024-01-17T09:26:54.032Z,99.90
2024-01-17T09:29:22.623Z,99.90
2024-01-17T09:31:51.855Z,99.90
2024-01-17T09:34:20.260Z,99.90
2024-01-17T09:36:48.649Z,99.90
2024-01-17T09:39:18.462Z,99.90
2024-01-17T09:41:47.364Z,99.90
2024-01-17T09:44:15.591Z,99.90
2024-01-17T09:46:46.366Z,99.90
2024-01-17T09:49:14.716Z,99.90
2024-01-17T09:51:43.983Z,99.90
2024-01-17T09:54:14.708Z,99.90
2024-01-17T09:56:49.262Z,99.90
2024-01-17T09:59:19.439Z,99.90
2024-01-17T10:01:47.657Z,99.90
2024-01-17T10:04:16.352Z,99.90
2024-01-17T10:06:45.819Z,99.90
2024-01-17T10:09:15.619Z,99.90
2024-01-17T10:11:45.582Z,99.90
2024-01-17T10:14:15.127Z,99.90
2024-01-17T10:16:44.018Z,98.90
2024-01-17T10:19:12.378Z,99.90
2024-01-17T10:21:41.147Z,99.90
2024-01-17T10:24:09.440Z,99.90
2024-01-17T10:26:37.708Z,99.90
2024-01-17T10:29:07.329Z,99.10
2024-01-17T10:31:35.687Z,98.90
2024-01-17T10:34:04.217Z,98.50
2024-01-17T10:36:32.676Z,97.50
2024-01-17T10:39:05.192Z,98.30
2024-01-17T10:41:33.808Z,97.60
2024-01-17T10:44:05.447Z,99.90
2024-01-17T10:46:35.064Z,99.90
2024-01-17T10:49:03.669Z,99.90
2024-01-17T10:51:37.447Z,99.90
2024-01-17T10:54:09.815Z,99.90
2024-01-17T10:56:43.248Z,99.90
2024-01-17T10:59:14.779Z,99.90
2024-01-17T11:01:47.626Z,99.90
2024-01-17T11:04:20.346Z,99.90
2024-01-17T11:06:49.923Z,99.90
2024-01-17T11:09:19.553Z,99.90
2024-01-17T11:11:49.037Z,99.90
2024-01-17T11:14:19.421Z,99.90
2024-01-17T11:16:52.112Z,99.90
2024-01-17T11:19:22.695Z,99.90
2024-01-17T11:21:52.457Z,99.90
2024-01-17T11:24:30.439Z,99.90
2024-01-17T11:27:08.211Z,99.90
2024-01-17T11:29:47.430Z,99.90
2024-01-17T11:32:23.919Z,99.90
2024-01-17T11:34:53.295Z,99.90
2024-01-17T11:37:35.393Z,99.90
2024-01-17T11:40:05.772Z,99.90
2024-01-17T11:42:36.335Z,99.90
2024-01-17T11:45:13.652Z,99.90
2024-01-17T11:47:54.410Z,99.90
2024-01-17T11:50:24.752Z,99.90
2024-01-17T11:52:54.619Z,99.90
2024-01-17T11:55:32.226Z,99.90
2024-01-17T11:58:02.852Z,99.90
2024-01-17T12:00:31.223Z,99.90
2024-01-17T12:03:01.519Z,99.90
2024-01-17T12:05:30.471Z,99.90
2024-01-17T12:07:59.989Z,99.90
2024-01-17T12:10:28.322Z,99.90
2024-01-17T12:12:59.414Z,99.90
2024-01-17T12:15:27.700Z,99.90
2024-01-17T12:17:56.481Z,99.90
2024-01-17T12:20:27.367Z,99.90
2024-01-17T12:22:56.559Z,99.90
2024-01-17T12:25:24.798Z,99.90
2024-01-17T12:27:56.824Z,99.90
2024-01-17T12:30:25.153Z,99.90
2024-01-17T12:32:54.179Z,99.90
2024-01-17T12:35:22.527Z,99.90
2024-01-17T12:37:52.224Z,99.90
2024-01-17T12:40:20.420Z,99.90
2024-01-17T12:42:50.956Z,99.90
2024-01-17T12:45:20.807Z,99.90
2024-01-17T12:47:50.680Z,99.90
2024-01-17T12:50:20.327Z,99.90
2024-01-17T12:52:48.684Z,99.90
2024-01-17T12:55:23.126Z,99.90
2024-01-17T12:57:51.997Z,99.90
2024-01-17T13:00:25.034Z,99.90
2024-01-17T13:02:53.939Z,99.90
2024-01-17T13:05:25.124Z,99.90
2024-01-17T13:07:53.698Z,99.90
2024-01-17T13:10:24.636Z,99.90
2024-01-17T13:12:57.073Z,99.90
2024-01-17T13:15:25.928Z,99.90
2024-01-17T13:17:57.410Z,99.90
2024-01-17T13:20:28.197Z,99.90
2024-01-17T13:22:57.028Z,99.90
2024-01-17T13:25:27.040Z,99.90
2024-01-17T13:27:59.817Z,99.90
2024-01-17T13:30:28.784Z,99.90
2024-01-17T13:32:58.101Z,99.90
2024-01-17T13:35:26.442Z,99.90
2024-01-17T13:37:54.732Z,99.90
2024-01-17T13:40:24.604Z,99.90
2024-01-17T13:42:54.163Z,99.90
2024-01-17T13:45:23.383Z,99.90
2024-01-17T13:47:51.920Z,99.90
2024-01-17T13:50:23.390Z,99.90
2024-01-17T13:52:53.487Z,99.90
2024-01-17T13:55:23.822Z,99.90
2024-01-17T13:57:54.198Z,99.90
2024-01-17T14:00:24.435Z,99.90
2024-01-17T14:02:54.105Z,99.90
2024-01-17T14:05:22.429Z,99.90
2024-01-17T14:07:50.697Z,99.90
2024-01-17T14:10:20.263Z,99.90
2024-01-17T14:12:48.722Z,99.90
2024-01-17T14:15:20.769Z,99.90
2024-01-17T14:17:50.085Z,99.90
2024-01-17T14:20:20.412Z,99.90
2024-01-17T14:22:49.737Z,99.90
2024-01-17T14:25:18.488Z,99.90
2024-01-17T14:27:47.357Z,99.90
2024-01-17T14:30:17.936Z,99.90
2024-01-17T14:32:46.631Z,99.90
2024-01-17T14:35:15.324Z,99.90
2024-01-17T14:37:43.769Z,99.90
2024-01-17T14:40:12.887Z,99.90
2024-01-17T14:42:41.187Z,99.90
2024-01-17T14:45:11.241Z,99.90
2024-01-17T14:47:41.176Z,99.90
2024-01-17T14:50:10.118Z,99.90
2024-01-17T14:52:38.450Z,99.90
2024-01-17T14:55:08.453Z,99.90
2024-01-17T14:57:36.809Z,99.90
2024-01-17T15:00:07.972Z,99.90
2024-01-17T15:02:36.478Z,99.90
2024-01-17T15:05:10.930Z,99.90
2024-01-17T15:07:39.460Z,99.90
2024-01-17T15:10:08.491Z,99.90
2024-01-17T15:12:37.219Z,99.90
2024-01-17T15:15:08.058Z,99.90
2024-01-17T15:17:37.168Z,99.90
2024-01-17T15:20:11.161Z,99.90
2024-01-17T15:22:39.728Z,99.90
2024-01-17T15:25:10.757Z,99.90
2024-01-17T15:27:39.541Z,99.90
2024-01-17T15:30:12.195Z,99.90
2024-01-17T15:32:43.077Z,99.90
2024-01-17T15:35:12.978Z,99.90
2024-01-17T15:37:42.058Z,99.90
2024-01-17T15:40:12.610Z,99.90
2024-01-17T15:42:42.015Z,99.90
2024-01-17T15:45:11.123Z,99.90
2024-01-17T15:47:40.115Z,99.90
2024-01-17T15:50:10.743Z,99.90
2024-01-17T15:52:40.510Z,99.90
2024-01-17T15:55:09.323Z,99.90
2024-01-17T15:57:37.685Z,99.90
2024-01-17T16:00:10.546Z,99.90
2024-01-17T16:02:39.676Z,99.90
2024-01-17T16:05:09.662Z,99.90
2024-01-17T16:07:39.546Z,99.90
2024-01-17T16:10:09.516Z,99.90
2024-01-17T16:12:37.805Z,99.90
2024-01-17T16:15:10.607Z,99.90
2024-01-17T16:17:39.358Z,99.90
2024-01-17T16:20:09.734Z,99.90
2024-01-17T16:22:39.466Z,99.90
2024-01-17T16:25:09.280Z,99.90
2024-01-17T16:27:37.722Z,99.90
2024-01-17T16:30:07.148Z,99.90
2024-01-17T16:32:35.529Z,99.90
2024-01-17T16:35:04.468Z,99.90
2024-01-17T16:37:33.125Z,99.90
2024-01-17T16:40:04.466Z,99.90
2024-01-17T16:42:33.092Z,99.90
2024-01-17T16:45:03.544Z,99.90
2024-01-17T16:47:33.028Z,99.90
2024-01-17T16:50:01.385Z,99.90
2024-01-17T16:52:30.780Z,99.90
2024-01-17T16:54:59.036Z,99.90
2024-01-17T16:57:29.631Z,99.90
2024-01-17T16:59:58.818Z,99.90
2024-01-17T17:02:27.850Z,99.90
2024-01-17T17:04:56.059Z,99.90
2024-01-17T17:07:24.327Z,99.90
2024-01-17T17:09:52.617Z,99.90
2024-01-17T17:12:21.320Z,99.90
2024-01-17T17:14:51.681Z,99.90
2024-01-17T17:17:19.916Z,99.90
2024-01-17T17:19:48.152Z,99.90
2024-01-17T17:22:17.971Z,99.90
2024-01-17T17:24:48.408Z,99.90
2024-01-17T17:27:16.816Z,99.90
2024-01-17T17:29:46.353Z,99.90
2024-01-17T17:32:23.723Z,99.90
2024-01-17T17:34:54.197Z,99.90
2024-01-17T17:37:23.984Z,99.90
2024-01-17T17:39:52.393Z,99.90
2024-01-17T17:42:20.744Z,99.90
2024-01-17T17:44:49.325Z,99.90
2024-01-17T17:47:18.978Z,99.90
2024-01-17T17:49:47.204Z,99.90
2024-01-17T17:52:15.728Z,99.90
2024-01-17T17:54:45.888Z,99.90
2024-01-17T17:57:14.099Z,99.90
2024-01-17T17:59:42.317Z,99.90
2024-01-17T18:02:11.097Z,99.90
2024-01-17T18:04:41.106Z,99.90
2024-01-17T18:07:09.728Z,99.90
2024-01-17T18:09:38.008Z,99.90
2024-01-17T18:12:06.760Z,99.90
2024-01-17T18:14:35.085Z,99.90
2024-01-17T18:17:03.253Z,99.90
2024-01-17T18:19:31.728Z,99.90
2024-01-17T18:22:01.277Z,99.90
2024-01-17T18:24:29.544Z,99.90
2024-01-17T18:26:58.772Z,99.90
2024-01-17T18:29:28.056Z,99.90
2024-01-17T18:31:56.248Z,99.90
2024-01-17T18:34:28.321Z,99.90
2024-01-17T18:36:57.085Z,99.90
2024-01-17T18:39:26.889Z,99.90
2024-01-17T18:41:57.551Z,99.90
2024-01-17T18:44:26.144Z,99.90
2024-01-17T18:46:54.467Z,99.90
2024-01-17T18:49:22.670Z,99.90
2024-01-17T18:51:50.948Z,99.90
2024-01-17T18:54:19.520Z,99.90
2024-01-17T18:56:49.574Z,99.90
2024-01-17T18:59:17.884Z,99.90
2024-01-17T19:01:46.226Z,99.90
2024-01-17T19:04:14.489Z,99.90
2024-01-17T19:06:44.861Z,99.90
2024-01-17T19:09:17.492Z,99.90
2024-01-17T19:11:45.994Z,99.90
2024-01-17T19:14:17.994Z,99.90
2024-01-17T19:16:47.869Z,99.90
2024-01-17T19:19:16.631Z,99.90
2024-01-17T19:21:44.912Z,99.90
2024-01-17T19:24:14.813Z,99.90
2024-01-17T19:26:46.606Z,99.90
2024-01-17T19:29:16.216Z,99.90
2024-01-17T19:31:45.823Z,99.90
2024-01-17T19:34:14.230Z,99.90
2024-01-17T19:36:43.128Z,99.90
2024-01-17T19:39:12.532Z,99.90
2024-01-17T19:41:40.780Z,99.90
2024-01-17T19:44:08.914Z,99.90
2024-01-17T19:46:39.829Z,99.90
2024-01-17T19:49:09.614Z,99.90
2024-01-17T19:51:38.150Z,99.90
2024-01-17T19:54:06.406Z,99.90
2024-01-17T19:56:34.787Z,99.90
2024-01-17T19:59:03.046Z,99.90
2024-01-17T20:01:32.458Z,99.90
2024-01-17T20:04:02.313Z,99.90
2024-01-17T20:06:30.596Z,99.90
2024-01-17T20:08:58.849Z,99.90
2024-01-17T20:11:28.934Z,99.90
2024-01-17T20:13:57.070Z,99.90
2024-01-17T20:16:26.259Z,99.90
2024-01-17T20:18:57.191Z,99.90
2024-01-17T20:21:28.445Z,99.90
2024-01-17T20:23:57.468Z,99.90
2024-01-17T20:26:26.164Z,99.90
2024-01-17T20:28:54.437Z,99.90
2024-01-17T20:31:22.617Z,99.90
2024-01-17T20:33:51.363Z,99.90
2024-01-17T20:36:19.764Z,99.90
2024-01-17T20:38:49.389Z,99.90
2024-01-17T20:41:18.019Z,99.90
2024-01-17T20:43:47.144Z,99.90
2024-01-17T20:46:16.779Z,99.90
2024-01-17T20:48:45.249Z,99.90
2024-01-17T20:51:13.682Z,99.90
2024-01-17T20:53:41.922Z,99.90
2024-01-17T20:56:11.437Z,99.90
2024-01-17T20:58:39.576Z,99.90
2024-01-17T21:01:08.402Z,99.90
2024-01-17T21:03:37.308Z,99.90
2024-01-17T21:06:06.288Z,99.90
2024-01-17T21:08:34.560Z,99.90
2024-01-17T21:11:02.738Z,99.90
2024-01-17T21:13:32.249Z,99.90
2024-01-17T21:16:00.401Z,99.90
2024-01-17T21:18:28.812Z,99.90
2024-01-17T21:20:57.498Z,99.90
2024-01-17T21:23:28.240Z,99.90
2024-01-17T21:25:56.737Z,99.90
2024-01-17T21:28:25.031Z,99.90
2024-01-17T21:30:54.642Z,99.90
2024-01-17T21:33:24.634Z,99.90
2024-01-17T21:35:52.949Z,99.90
2024-01-17T21:38:21.151Z,99.90
2024-01-17T21:40:49.289Z,99.90
2024-01-17T21:43:17.454Z,99.90
2024-01-17T21:45:45.746Z,99.90
2024-01-17T21:48:15.449Z,99.90
2024-01-17T21:50:43.866Z,99.90
2024-01-17T21:53:12.200Z,99.90
2024-01-17T21:55:40.409Z,99.90
2024-01-17T21:58:08.586Z,99.90
2024-01-17T22:00:36.926Z,99.90
2024-01-17T22:03:07.525Z,99.90
2024-01-17T22:05:37.269Z,99.90
2024-01-17T22:08:05.954Z,99.90
2024-01-17T22:10:37.092Z,99.90
2024-01-17T22:13:05.585Z,99.90
2024-01-17T22:15:34.206Z,99.90
2024-01-17T22:18:03.418Z,99.90
2024-01-17T22:20:31.944Z,99.90
2024-01-17T22:23:01.529Z,99.90
2024-01-17T22:25:30.525Z,99.90
2024-01-17T22:27:59.633Z,99.90
2024-01-17T22:30:27.980Z,99.90
2024-01-17T22:32:57.313Z,99.90
2024-01-17T22:35:27.018Z,99.90
2024-01-17T22:37:55.839Z,99.90
2024-01-17T22:40:25.983Z,99.90
2024-01-17T22:42:54.150Z,99.90
2024-01-17T22:45:22.422Z,99.90
2024-01-17T22:47:50.734Z,99.90
2024-01-17T22:50:19.143Z,99.90
2024-01-17T22:52:49.308Z,99.90
2024-01-17T22:55:17.787Z,99.90
2024-01-17T22:57:47.322Z,99.90
2024-01-17T23:00:22.044Z,99.90
2024-01-17T23:02:51.436Z,99.90
2024-01-17T23:05:20.284Z,99.90
2024-01-17T23:07:56.847Z,99.90
2024-01-17T23:10:30.522Z,99.90
2024-01-17T23:13:00.289Z,99.90
2024-01-17T23:15:28.899Z,99.90
2024-01-17T23:17:57.469Z,99.90
2024-01-17T23:20:25.884Z,99.90
2024-01-17T23:22:54.085Z,99.90
2024-01-17T23:25:22.307Z,99.90
2024-01-17T23:27:50.522Z,99.90
2024-01-17T23:30:20.845Z,99.90
2024-01-17T23:32:49.150Z,99.90
2024-01-17T23:35:17.555Z,99.90
2024-01-17T23:37:45.771Z,99.90
2024-01-17T23:40:15.196Z,99.90
2024-01-17T23:42:43.604Z,99.90
2024-01-17T23:45:11.937Z,99.90
2024-01-17T23:47:41.583Z,99.90
2024-01-17T23:50:11.429Z,99.90
2024-01-17T23:52:39.694Z,99.90
2024-01-17T23:55:08.866Z,99.90
2024-01-17T23:57:37.095Z,99.90
